createdAt,value
2022-11-17T00:01:40.651Z,10.43
2022-11-17T00:04:10.449Z,10.37
2022-11-17T00:06:38.947Z,10.32
2022-11-17T00:09:07.254Z,10.27
2022-11-17T00:11:49.656Z,10.23
2022-11-17T00:14:44.079Z,10.20
2022-11-17T00:17:14.430Z,10.19
2022-11-17T00:20:01.730Z,10.19
2022-11-17T00:22:32.235Z,10.19
2022-11-17T00:25:00.773Z,10.20
2022-11-17T00:27:29.010Z,10.21
2022-11-17T00:29:57.579Z,10.22
2022-11-17T00:32:43.060Z,10.23
2022-11-17T00:35:12.715Z,10.25
2022-11-17T00:38:04.062Z,10.25
2022-11-17T00:40:32.367Z,10.27
2022-11-17T00:43:00.834Z,10.27
2022-11-17T00:45:29.362Z,10.28
2022-11-17T00:47:57.877Z,10.28
2022-11-17T00:50:27.540Z,10.29
2022-11-17T00:52:56.094Z,10.29
2022-11-17T00:55:24.717Z,10.29
2022-11-17T00:57:53.267Z,10.29
2022-11-17T01:00:22.269Z,10.31
2022-11-17T01:02:50.770Z,10.31
2022-11-17T01:05:19.413Z,10.31
2022-11-17T01:07:48.964Z,10.32
2022-11-17T01:10:17.548Z,10.32
2022-11-17T01:12:46.031Z,10.32
2022-11-17T01:15:14.564Z,10.31
2022-11-17T01:17:43.087Z,10.31
2022-11-17T01:20:12.167Z,10.32
2022-11-17T01:22:40.738Z,10.31
2022-11-17T01:25:10.787Z,10.28
2022-11-17T01:27:38.962Z,10.25
2022-11-17T01:30:08.881Z,10.21
2022-11-17T01:32:37.270Z,10.19
2022-11-17T01:35:06.293Z,10.18
2022-11-17T01:37:34.759Z,10.18
2022-11-17T01:40:03.566Z,10.19
2022-11-17T01:42:33.169Z,10.21
2022-11-17T01:45:05.385Z,10.24
2022-11-17T01:47:40.691Z,10.25
2022-11-17T01:50:20.728Z,10.29
2022-11-17T01:52:52.041Z,10.32
2022-11-17T01:55:23.638Z,10.34
2022-11-17T01:57:59.320Z,10.34
2022-11-17T02:00:28.417Z,10.31
2022-11-17T02:02:58.025Z,10.28
2022-11-17T02:05:36.384Z,10.28
2022-11-17T02:08:07.724Z,10.29
2022-11-17T02:10:37.595Z,10.30
2022-11-17T02:13:09.325Z,10.32
2022-11-17T02:15:37.643Z,10.34
2022-11-17T02:18:06.830Z,10.36
2022-11-17T02:30:05.028Z,10.40
2022-11-17T02:32:46.933Z,10.43
2022-11-17T02:35:25.483Z,10.48
2022-11-17T02:38:05.993Z,10.56
2022-11-17T02:40:41.316Z,10.61
2022-11-17T02:43:51.711Z,10.65
2022-11-17T02:46:45.228Z,10.67
2022-11-17T02:49:20.837Z,10.71
2022-11-17T02:51:54.230Z,10.76
2022-11-17T02:54:24.233Z,10.78
2022-11-17T02:56:52.860Z,10.81
2022-11-17T02:59:26.455Z,10.84
2022-11-17T03:02:34.780Z,10.84
2022-11-17T03:05:13.687Z,10.86
2022-11-17T03:17:03.056Z,11.10
2022-11-17T03:19:41.022Z,11.21
2022-11-17T03:22:18.879Z,11.31
2022-11-17T03:24:52.134Z,11.38
2022-11-17T03:27:26.317Z,11.37
2022-11-17T03:29:59.015Z,11.13
2022-11-17T03:32:31.581Z,10.95
2022-11-17T03:35:07.974Z,10.82
2022-11-17T03:37:40.035Z,10.79
2022-11-17T03:40:12.298Z,10.79
2022-11-17T03:42:45.331Z,10.81
2022-11-17T03:45:19.760Z,10.82
2022-11-17T03:47:50.083Z,10.83
2022-11-17T03:50:26.228Z,10.86
2022-11-17T03:52:55.228Z,10.91
2022-11-17T03:55:28.580Z,10.99
2022-11-17T03:58:05.202Z,11.03
2022-11-17T04:00:35.757Z,11.08
2022-11-17T04:03:04.266Z,11.12
2022-11-17T04:05:33.853Z,11.18
2022-11-17T04:08:02.508Z,11.19
2022-11-17T04:10:31.037Z,11.22
2022-11-17T04:13:17.042Z,11.23
2022-11-17T04:15:58.806Z,11.22
2022-11-17T04:18:27.732Z,11.24
2022-11-17T04:20:58.260Z,11.23
2022-11-17T04:23:27.021Z,11.24
2022-11-17T04:26:14.527Z,11.26
2022-11-17T04:28:46.170Z,11.26
2022-11-17T04:31:16.848Z,11.28
2022-11-17T04:33:47.691Z,11.29
2022-11-17T04:36:20.218Z,11.29
2022-11-17T04:38:51.595Z,11.30
2022-11-17T04:41:38.818Z,11.28
2022-11-17T04:44:09.008Z,11.07
2022-11-17T04:46:39.172Z,10.83
2022-11-17T04:49:08.925Z,10.63
2022-11-17T04:51:39.146Z,10.51
2022-11-17T04:54:09.671Z,10.42
2022-11-17T04:56:38.603Z,10.33
2022-11-17T04:59:07.785Z,10.30
2022-11-17T05:01:36.710Z,10.29
2022-11-17T05:04:07.179Z,10.30
2022-11-17T05:06:39.313Z,10.32
2022-11-17T05:09:10.863Z,10.38
2022-11-17T05:11:57.059Z,10.42
2022-11-17T05:14:27.643Z,10.47
2022-11-17T05:17:10.797Z,10.50
2022-11-17T05:19:41.934Z,10.51
2022-11-17T05:22:30.452Z,10.50
2022-11-17T05:24:59.418Z,10.46
2022-11-17T05:27:28.646Z,10.45
2022-11-17T05:29:57.213Z,10.43
2022-11-17T05:32:25.776Z,10.41
2022-11-17T05:34:54.311Z,10.39
2022-11-17T05:37:23.861Z,10.39
2022-11-17T05:39:52.106Z,10.42
2022-11-17T05:42:20.681Z,10.44
2022-11-17T05:44:49.371Z,10.48
2022-11-17T05:47:17.623Z,10.51
2022-11-17T05:49:46.125Z,10.52
2022-11-17T05:52:14.622Z,10.52
2022-11-17T05:54:44.292Z,10.55
2022-11-17T05:57:15.594Z,10.56
2022-11-17T05:59:47.812Z,10.62
2022-11-17T06:02:20.451Z,10.67
2022-11-17T06:04:50.852Z,10.73
2022-11-17T06:07:20.492Z,10.78
2022-11-17T06:09:51.156Z,10.85
2022-11-17T06:12:19.690Z,10.89
2022-11-17T06:14:48.217Z,10.93
2022-11-17T06:17:23.299Z,10.96
2022-11-17T06:19:56.414Z,11.02
2022-11-17T06:22:26.665Z,11.03
2022-11-17T06:24:56.808Z,11.04
2022-11-17T06:27:25.811Z,11.05
2022-11-17T06:29:56.152Z,11.06
2022-11-17T06:32:24.739Z,11.08
2022-11-17T06:34:56.129Z,11.07
2022-11-17T06:37:25.479Z,11.08
2022-11-17T06:39:55.342Z,11.12
2022-11-17T06:42:43.935Z,11.15
2022-11-17T06:45:13.466Z,11.16
2022-11-17T06:47:42.074Z,11.13
2022-11-17T06:50:11.178Z,11.13
2022-11-17T06:52:39.824Z,11.14
2022-11-17T06:55:10.409Z,11.15
2022-11-17T06:57:38.769Z,11.16
2022-11-17T07:00:09.128Z,11.17
2022-11-17T07:02:37.802Z,11.20
2022-11-17T07:05:06.927Z,11.23
2022-11-17T07:07:35.599Z,11.24
2022-11-17T07:10:04.375Z,11.27
2022-11-17T07:12:34.850Z,11.28
2022-11-17T07:15:03.334Z,11.31
2022-11-17T07:17:32.716Z,11.31
2022-11-17T07:20:01.516Z,11.33
2022-11-17T07:22:30.073Z,11.34
2022-11-17T07:24:58.608Z,11.34
2022-11-17T07:27:27.225Z,11.33
2022-11-17T07:29:56.921Z,11.31
2022-11-17T07:32:26.037Z,11.31
2022-11-17T07:34:54.675Z,11.32
2022-11-17T07:37:23.218Z,11.35
2022-11-17T07:39:51.750Z,11.38
2022-11-17T07:42:20.380Z,11.40
2022-11-17T07:44:55.946Z,11.41
2022-11-17T07:47:24.567Z,11.45
2022-11-17T07:49:53.228Z,11.49
2022-11-17T07:52:21.812Z,11.51
2022-11-17T07:54:50.478Z,11.54
2022-11-17T07:57:20.351Z,11.57
2022-11-17T07:59:48.876Z,11.62
2022-11-17T08:02:18.745Z,11.65
2022-11-17T08:04:47.314Z,11.57
2022-11-17T08:07:15.928Z,11.39
2022-11-17T08:09:44.584Z,11.23
2022-11-17T08:12:13.174Z,11.08
2022-11-17T08:14:41.848Z,10.99
2022-11-17T08:17:10.472Z,10.91
2022-11-17T08:19:40.105Z,10.87
2022-11-17T08:22:08.689Z,10.87
2022-11-17T08:24:37.252Z,10.88
2022-11-17T08:27:05.890Z,10.88
2022-11-17T08:29:34.440Z,10.86
2022-11-17T08:32:02.992Z,10.83
2022-11-17T08:34:31.565Z,10.83
2022-11-17T08:37:01.702Z,10.83
2022-11-17T08:39:30.264Z,10.81
2022-11-17T08:41:58.840Z,10.82
2022-11-17T08:44:27.465Z,10.80
2022-11-17T08:46:56.090Z,10.81
2022-11-17T08:49:24.652Z,10.82
2022-11-17T08:51:53.166Z,10.83
2022-11-17T08:54:22.808Z,10.86
2022-11-17T08:56:51.501Z,10.90
2022-11-17T08:59:20.081Z,10.97
2022-11-17T09:01:48.690Z,11.01
2022-11-17T09:04:17.394Z,11.01
2022-11-17T09:06:45.927Z,11.01
2022-11-17T09:09:14.567Z,11.05
2022-11-17T09:11:44.241Z,11.06
2022-11-17T09:14:12.801Z,11.10
2022-11-17T09:16:41.480Z,11.12
2022-11-17T09:19:09.784Z,11.16
2022-11-17T09:21:38.268Z,11.20
2022-11-17T09:24:07.695Z,11.26
2022-11-17T09:26:35.999Z,11.31
2022-11-17T09:29:05.620Z,11.42
2022-11-17T09:31:34.254Z,11.50
2022-11-17T09:34:05.639Z,11.54
2022-11-17T09:36:34.952Z,11.58
2022-11-17T09:39:03.579Z,11.63
2022-11-17T09:41:39.835Z,11.69
2022-11-17T09:44:23.182Z,11.75
2022-11-17T09:47:07.893Z,11.80
2022-11-17T09:49:53.631Z,11.83
2022-11-17T09:52:33.337Z,11.84
2022-11-17T09:55:10.488Z,11.83
2022-11-17T09:57:44.544Z,11.81
2022-11-17T10:00:19.420Z,11.79
2022-11-17T10:02:48.757Z,11.83
2022-11-17T10:05:21.636Z,11.87
2022-11-17T10:07:52.520Z,11.90
2022-11-17T10:10:34.685Z,11.93
2022-11-17T10:13:06.444Z,12.01
2022-11-17T10:15:46.720Z,12.12
2022-11-17T10:18:16.560Z,12.21
2022-11-17T10:20:46.064Z,12.26
2022-11-17T10:23:16.641Z,12.32
2022-11-17T10:25:46.850Z,12.38
2022-11-17T10:28:28.042Z,12.43
2022-11-17T10:31:01.457Z,12.46
2022-11-17T10:33:39.683Z,12.48
2022-11-17T10:36:18.792Z,12.53
2022-11-17T10:38:49.587Z,12.60
2022-11-17T10:41:22.590Z,12.69
2022-11-17T10:44:01.018Z,12.77
2022-11-17T10:46:40.599Z,12.85
2022-11-17T10:49:26.886Z,12.91
2022-11-17T10:52:07.213Z,12.93
2022-11-17T10:54:35.894Z,12.88
2022-11-17T10:57:09.811Z,12.82
2022-11-17T10:59:49.634Z,12.74
2022-11-17T11:02:31.401Z,12.71
2022-11-17T11:05:15.344Z,12.69
2022-11-17T11:07:44.181Z,12.70
2022-11-17T11:10:19.169Z,12.68
2022-11-17T11:12:53.433Z,12.67
2022-11-17T11:15:24.711Z,12.64
2022-11-17T11:17:54.444Z,12.59
2022-11-17T11:20:34.160Z,12.57
2022-11-17T11:23:10.056Z,12.65
2022-11-17T11:25:45.768Z,12.73
2022-11-17T11:28:41.190Z,13.00
2022-11-17T11:31:22.568Z,13.56
2022-11-17T11:34:04.225Z,13.88
2022-11-17T11:36:37.934Z,13.98
2022-11-17T11:39:19.531Z,14.03
2022-11-17T11:42:08.189Z,14.04
2022-11-17T11:44:55.128Z,13.94
2022-11-17T11:47:43.560Z,13.78
2022-11-17T11:50:18.803Z,13.62
2022-11-17T11:52:52.284Z,13.46
2022-11-17T11:55:25.169Z,13.22
2022-11-17T11:58:01.825Z,12.93
2022-11-17T12:00:30.221Z,12.71
2022-11-17T12:03:11.909Z,12.57
2022-11-17T12:05:57.528Z,12.44
2022-11-17T12:08:36.060Z,12.26
2022-11-17T12:11:25.399Z,12.08
2022-11-17T12:13:55.036Z,11.88
2022-11-17T12:16:30.867Z,11.74
2022-11-17T12:18:59.468Z,11.65
2022-11-17T12:21:30.668Z,11.56
2022-11-17T12:24:19.728Z,11.42
2022-11-17T12:26:48.279Z,11.40
2022-11-17T12:29:32.561Z,11.33
2022-11-17T12:32:03.161Z,11.27
2022-11-17T12:34:37.354Z,11.26
2022-11-17T12:37:27.391Z,11.22
2022-11-17T12:40:08.760Z,11.10
2022-11-17T12:42:37.976Z,10.98
2022-11-17T12:45:09.738Z,10.90
2022-11-17T12:47:40.500Z,10.84
2022-11-17T12:50:45.888Z,10.81
2022-11-17T12:53:42.458Z,10.82
2022-11-17T12:57:05.114Z,10.83
2022-11-17T13:00:07.596Z,10.93
2022-11-17T13:03:06.521Z,10.96
2022-11-17T13:05:35.683Z,10.99
2022-11-17T13:08:21.307Z,11.03
2022-11-17T13:10:53.139Z,11.04
2022-11-17T13:13:25.009Z,11.08
2022-11-17T13:15:57.044Z,11.11
2022-11-17T13:18:32.319Z,11.10
2022-11-17T13:21:02.071Z,11.09
2022-11-17T13:23:32.072Z,11.09
2022-11-17T13:26:18.828Z,11.09
2022-11-17T13:28:47.953Z,11.12
2022-11-17T13:31:20.538Z,11.18
2022-11-17T13:34:00.621Z,11.25
2022-11-17T13:36:29.212Z,11.36
2022-11-17T13:39:00.439Z,11.46
2022-11-17T13:41:37.978Z,11.50
2022-11-17T13:44:08.650Z,11.47
2022-11-17T13:46:38.761Z,11.43
2022-11-17T13:49:33.215Z,11.40
2022-11-17T13:52:02.019Z,11.41
2022-11-17T13:54:30.855Z,11.41
2022-11-17T13:57:07.474Z,11.42
2022-11-17T13:59:38.106Z,11.49
2022-11-17T14:02:29.511Z,11.57
2022-11-17T14:05:25.749Z,11.63
2022-11-17T14:07:56.930Z,11.65
2022-11-17T14:10:32.427Z,11.63
2022-11-17T14:13:29.783Z,11.61
2022-11-17T14:16:01.445Z,11.59
2022-11-17T14:18:36.968Z,11.57
2022-11-17T14:21:15.815Z,11.54
2022-11-17T14:23:46.193Z,11.52
2022-11-17T14:26:25.378Z,11.47
2022-11-17T14:29:02.029Z,11.48
2022-11-17T14:31:33.291Z,11.42
2022-11-17T14:34:04.004Z,11.25
2022-11-17T14:36:34.292Z,11.04
2022-11-17T14:39:03.706Z,10.84
2022-11-17T14:41:32.215Z,10.69
2022-11-17T14:44:01.762Z,10.58
2022-11-17T14:46:30.322Z,10.49
2022-11-17T14:48:58.895Z,10.41
2022-11-17T14:51:27.532Z,10.37
2022-11-17T14:53:56.185Z,10.32
2022-11-17T14:56:26.054Z,10.31
2022-11-17T14:58:57.327Z,10.29
2022-11-17T15:01:30.441Z,10.27
2022-11-17T15:04:15.466Z,10.26
2022-11-17T15:06:49.902Z,10.26
2022-11-17T15:09:20.414Z,10.27
2022-11-17T15:11:51.960Z,10.27
2022-11-17T15:14:20.903Z,10.27
2022-11-17T15:16:50.512Z,10.27
2022-11-17T15:19:19.739Z,10.25
2022-11-17T15:21:48.447Z,10.23
2022-11-17T15:24:17.479Z,10.22
2022-11-17T15:26:46.768Z,10.20
2022-11-17T15:29:16.276Z,10.19
2022-11-17T15:31:45.287Z,10.18
2022-11-17T15:34:19.908Z,10.17
2022-11-17T15:36:48.984Z,10.17
2022-11-17T15:39:18.381Z,10.17
2022-11-17T15:41:48.750Z,10.18
2022-11-17T15:44:18.878Z,10.18
2022-11-17T15:46:48.158Z,10.18
2022-11-17T15:49:18.327Z,10.19
2022-11-17T15:51:47.972Z,10.19
2022-11-17T15:54:20.407Z,10.18
2022-11-17T15:56:50.890Z,10.15
2022-11-17T15:59:19.977Z,10.07
2022-11-17T16:01:48.747Z,10.04
2022-11-17T16:04:18.357Z,9.98
2022-11-17T16:06:47.744Z,9.94
2022-11-17T16:09:17.104Z,9.92
2022-11-17T16:11:45.947Z,9.89
2022-11-17T16:14:15.277Z,9.89
2022-11-17T16:16:46.728Z,9.89
2022-11-17T16:19:17.378Z,9.89
2022-11-17T16:21:46.644Z,9.90
2022-11-17T16:24:33.685Z,9.89
2022-11-17T16:27:03.105Z,9.87
2022-11-17T16:29:31.667Z,9.86
2022-11-17T16:32:00.209Z,9.85
2022-11-17T16:34:29.992Z,9.84
2022-11-17T16:36:58.605Z,9.81
2022-11-17T16:39:27.135Z,9.81
2022-11-17T16:41:55.713Z,9.82
2022-11-17T16:44:24.277Z,9.81
2022-11-17T16:46:52.808Z,9.81
2022-11-17T16:49:21.524Z,9.82
2022-11-17T16:51:53.730Z,9.83
2022-11-17T16:54:22.451Z,9.83
2022-11-17T16:56:51.280Z,9.84
2022-11-17T16:59:20.134Z,9.85
2022-11-17T17:01:48.844Z,9.82
2022-11-17T17:04:17.531Z,9.80
2022-11-17T17:06:46.477Z,9.79
2022-11-17T17:09:18.053Z,9.78
2022-11-17T17:11:49.199Z,9.78
2022-11-17T17:14:18.005Z,9.78
2022-11-17T17:16:46.972Z,9.79
2022-11-17T17:19:16.914Z,9.79
2022-11-17T17:21:45.969Z,9.79
2022-11-17T17:24:15.884Z,9.78
2022-11-17T17:26:44.647Z,9.76
2022-11-17T17:29:13.819Z,9.75
2022-11-17T17:31:43.462Z,9.74
2022-11-17T17:34:13.551Z,9.74
2022-11-17T17:36:42.236Z,9.73
2022-11-17T17:39:16.496Z,9.74
2022-11-17T17:41:45.981Z,9.73
2022-11-17T17:44:17.522Z,9.73
2022-11-17T17:46:47.315Z,9.73
2022-11-17T17:49:16.146Z,9.72
2022-11-17T17:51:45.511Z,9.72
2022-11-17T17:54:18.940Z,9.70
2022-11-17T17:56:48.333Z,9.70
2022-11-17T17:59:17.331Z,9.69
2022-11-17T18:01:47.769Z,9.70
2022-11-17T18:04:17.063Z,9.70
2022-11-17T18:06:48.277Z,9.71
2022-11-17T18:09:20.379Z,9.69
2022-11-17T18:11:51.037Z,9.68
2022-11-17T18:14:24.113Z,9.69
2022-11-17T18:16:53.779Z,9.69
2022-11-17T18:19:25.737Z,9.70
2022-11-17T18:21:56.913Z,9.70
2022-11-17T18:24:27.039Z,9.72
2022-11-17T18:26:55.857Z,9.73
2022-11-17T18:29:24.837Z,9.73
2022-11-17T18:31:53.660Z,9.74
2022-11-17T18:34:23.901Z,9.75
2022-11-17T18:36:55.519Z,9.75
2022-11-17T18:39:24.487Z,9.75
2022-11-17T18:41:54.147Z,9.75
2022-11-17T18:44:22.636Z,9.74
2022-11-17T18:46:51.269Z,9.73
2022-11-17T18:49:20.147Z,9.72
2022-11-17T18:51:49.420Z,9.72
2022-11-17T18:54:17.917Z,9.70
2022-11-17T18:56:46.159Z,9.70
2022-11-17T18:59:18.416Z,9.71
2022-11-17T19:01:47.369Z,9.69
2022-11-17T19:04:16.209Z,9.68
2022-11-17T19:06:45.405Z,9.69
2022-11-17T19:09:14.270Z,9.70
2022-11-17T19:11:43.151Z,9.73
2022-11-17T19:14:11.789Z,9.76
2022-11-17T19:16:44.915Z,9.78
2022-11-17T19:19:15.180Z,9.78
2022-11-17T19:21:44.588Z,9.78
2022-11-17T19:24:13.697Z,9.79
2022-11-17T19:26:42.862Z,9.78
2022-11-17T19:29:17.177Z,9.79
2022-11-17T19:31:48.486Z,9.79
2022-11-17T19:34:17.556Z,9.78
2022-11-17T19:36:46.019Z,9.76
2022-11-17T19:39:15.387Z,9.74
2022-11-17T19:41:45.093Z,9.73
2022-11-17T19:44:13.909Z,9.72
2022-11-17T19:46:43.410Z,9.71
2022-11-17T19:49:14.260Z,9.72
2022-11-17T19:51:42.980Z,9.71
2022-11-17T19:54:13.357Z,9.70
2022-11-17T19:56:42.135Z,9.71
2022-11-17T19:59:15.598Z,9.71
2022-11-17T20:01:45.831Z,9.72
2022-11-17T20:04:15.680Z,9.73
2022-11-17T20:06:43.980Z,9.72
2022-11-17T20:09:15.385Z,9.72
2022-11-17T20:11:44.499Z,9.72
2022-11-17T20:14:14.391Z,9.74
2022-11-17T20:16:43.007Z,9.73
2022-11-17T20:19:12.079Z,9.74
2022-11-17T20:21:41.745Z,9.75
2022-11-17T20:24:10.448Z,9.76
2022-11-17T20:26:42.961Z,9.76
2022-11-17T20:29:11.790Z,9.78
2022-11-17T20:31:40.076Z,9.79
2022-11-17T20:34:12.712Z,9.80
2022-11-17T20:36:42.453Z,9.81
2022-11-17T20:39:11.170Z,9.82
2022-11-17T20:41:39.721Z,9.85
2022-11-17T20:44:23.607Z,9.87
2022-11-17T20:46:53.484Z,9.88
2022-11-17T20:49:22.357Z,9.88
2022-11-17T20:51:52.164Z,9.89
2022-11-17T20:54:20.439Z,9.90
2022-11-17T20:56:48.654Z,9.91
2022-11-17T20:59:20.169Z,9.92
2022-11-17T21:01:50.227Z,9.93
2022-11-17T21:04:18.661Z,9.93
2022-11-17T21:06:47.206Z,9.95
2022-11-17T21:09:16.961Z,9.94
2022-11-17T21:11:59.372Z,9.96
2022-11-17T21:14:29.251Z,9.94
2022-11-17T21:17:00.430Z,9.94
2022-11-17T21:19:29.343Z,9.92
2022-11-17T21:21:57.569Z,9.92
2022-11-17T21:24:27.810Z,9.92
2022-11-17T21:26:56.865Z,9.92
2022-11-17T21:29:25.388Z,9.90
2022-11-17T21:31:53.632Z,9.89
2022-11-17T21:34:21.857Z,9.88
2022-11-17T21:36:50.363Z,9.87
2022-11-17T21:39:19.775Z,9.86
2022-11-17T21:41:49.469Z,9.86
2022-11-17T21:44:18.310Z,9.87
2022-11-17T21:46:46.582Z,9.87
2022-11-17T21:49:15.699Z,9.88
2022-11-17T21:51:45.458Z,9.88
2022-11-17T21:54:14.079Z,9.90
2022-11-17T21:56:42.639Z,9.90
2022-11-17T21:59:14.249Z,9.91
2022-11-17T22:01:43.085Z,9.91
2022-11-17T22:04:12.918Z,9.92
2022-11-17T22:06:41.480Z,9.92
2022-11-17T22:09:09.843Z,9.92
2022-11-17T22:11:39.124Z,9.93
2022-11-17T22:14:12.982Z,9.92
2022-11-17T22:16:43.396Z,9.92
2022-11-17T22:19:13.148Z,9.93
2022-11-17T22:21:42.145Z,9.93
2022-11-17T22:24:12.772Z,9.93
2022-11-17T22:26:43.615Z,9.93
2022-11-17T22:29:15.775Z,9.91
2022-11-17T22:31:45.151Z,9.91
2022-11-17T22:34:14.243Z,9.90
2022-11-17T22:36:42.621Z,9.89
2022-11-17T22:39:11.219Z,9.88
2022-11-17T22:41:39.719Z,9.87
2022-11-17T22:44:08.326Z,9.85
2022-11-17T22:46:40.501Z,9.82
2022-11-17T22:49:09.153Z,9.79
2022-11-17T22:51:55.025Z,9.76
2022-11-17T22:54:23.582Z,9.73
2022-11-17T22:56:51.902Z,9.71
2022-11-17T22:59:21.120Z,9.68
2022-11-17T23:01:50.812Z,9.65
2022-11-17T23:04:19.417Z,9.63
2022-11-17T23:06:48.236Z,9.59
2022-11-17T23:09:17.225Z,9.57
2022-11-17T23:11:46.115Z,9.53
2022-11-17T23:14:15.756Z,9.50
2022-11-17T23:16:44.416Z,9.47
2022-11-17T23:19:15.777Z,9.43
2022-11-17T23:21:44.766Z,9.41
2022-11-17T23:24:14.661Z,9.39
2022-11-17T23:26:43.752Z,9.38
2022-11-17T23:29:12.264Z,9.37
2022-11-17T23:31:40.944Z,9.36
2022-11-17T23:34:11.233Z,9.37
2022-11-17T23:36:40.992Z,9.38
2022-11-17T23:39:09.815Z,9.36
2022-11-17T23:41:38.497Z,9.37
2022-11-17T23:44:07.137Z,9.38
2022-11-17T23:46:35.373Z,9.39
2022-11-17T23:49:04.140Z,9.40
2022-11-17T23:51:32.747Z,9.40
2022-11-17T23:54:02.838Z,9.40
2022-11-17T23:56:34.393Z,9.40
2022-11-17T23:59:03.555Z,9.40
